Terminal Aerodrome Forecast
Issued by NWS

Home | Current Version | Previous Version | Text Only | Print | Product List | Glossary On
Versions: 1 2 3 4 5 6 7 8 9 10 11 12 13 14 15 16 17 18 19 20 21 22 23 24 25
000
FTUS41 KRLX 230540
TAFCKB
TAF
KCKB 230540Z 2306/2406 10003KT 5SM BR OVC012
     FM231000 00000KT P6SM OVC025
     FM231200 00000KT P6SM OVC250
     FM231400 14004KT P6SM BKN035
     FM231500 15006KT 6SM -RA BKN025
     FM231700 20008KT P6SM BKN040
     FM240000 24006KT P6SM SHRA BKN010
     FM240400 24004KT 3SM BR BKN003=

USA.gov is the U.S. government's official web portal to all federal, state and local government web resources and services.